sensor_id;sensor_type;location;lat;lon;timestamp;P1;durP1;ratioP1;P2;durP2;ratioP2
61015;SDS011;46902;52.920;6.536;2023-04-15T00:02:17;9.27;;;3.35;;
61015;SDS011;46902;52.920;6.536;2023-04-15T00:04:46;8.50;;;3.22;;
61015;SDS011;46902;52.920;6.536;2023-04-15T00:07:12;8.40;;;3.67;;
61015;SDS011;46902;52.920;6.536;2023-04-15T00:09:39;9.20;;;3.25;;
61015;SDS011;46902;52.920;6.536;2023-04-15T00:12:05;8.45;;;3.30;;
61015;SDS011;46902;52.920;6.536;2023-04-15T00:14:33;6.68;;;3.58;;
61015;SDS011;46902;52.920;6.536;2023-04-15T00:17:00;7.13;;;3.70;;
61015;SDS011;46902;52.920;6.536;2023-04-15T00:19:26;11.02;;;3.85;;
61015;SDS011;46902;52.920;6.536;2023-04-15T00:21:52;10.18;;;3.88;;
61015;SDS011;46902;52.920;6.536;2023-04-15T00:24:17;11.02;;;3.60;;
61015;SDS011;46902;52.920;6.536;2023-04-15T00:26:43;8.98;;;3.70;;
61015;SDS011;46902;52.920;6.536;2023-04-15T00:29:08;6.35;;;3.50;;
61015;SDS011;46902;52.920;6.536;2023-04-15T00:31:34;11.23;;;3.97;;
61015;SDS011;46902;52.920;6.536;2023-04-15T00:34:00;10.57;;;4.00;;
61015;SDS011;46902;52.920;6.536;2023-04-15T00:36:26;8.98;;;4.03;;
61015;SDS011;46902;52.920;6.536;2023-04-15T00:38:52;8.70;;;3.80;;
61015;SDS011;46902;52.920;6.536;2023-04-15T00:41:18;12.90;;;4.55;;
61015;SDS011;46902;52.920;6.536;2023-04-15T00:43:43;12.57;;;4.32;;
61015;SDS011;46902;52.920;6.536;2023-04-15T00:46:09;9.90;;;3.80;;
61015;SDS011;46902;52.920;6.536;2023-04-15T00:48:38;8.10;;;3.92;;
61015;SDS011;46902;52.920;6.536;2023-04-15T00:51:04;7.78;;;3.60;;
61015;SDS011;46902;52.920;6.536;2023-04-15T00:53:31;9.80;;;4.07;;
61015;SDS011;46902;52.920;6.536;2023-04-15T00:55:57;10.05;;;4.07;;
61015;SDS011;46902;52.920;6.536;2023-04-15T00:58:22;10.57;;;4.70;;
61015;SDS011;46902;52.920;6.536;2023-04-15T01:00:48;9.85;;;4.70;;
61015;SDS011;46902;52.920;6.536;2023-04-15T01:03:18;9.85;;;4.57;;
61015;SDS011;46902;52.920;6.536;2023-04-15T01:05:44;9.27;;;4.43;;
61015;SDS011;46902;52.920;6.536;2023-04-15T01:08:10;8.75;;;4.32;;
61015;SDS011;46902;52.920;6.536;2023-04-15T01:10:36;8.35;;;3.75;;
61015;SDS011;46902;52.920;6.536;2023-04-15T01:13:02;11.25;;;4.60;;
61015;SDS011;46902;52.920;6.536;2023-04-15T01:15:28;9.00;;;4.38;;
61015;SDS011;46902;52.920;6.536;2023-04-15T01:17:54;8.75;;;4.57;;
61015;SDS011;46902;52.920;6.536;2023-04-15T01:20:22;9.55;;;4.72;;
61015;SDS011;46902;52.920;6.536;2023-04-15T01:22:48;14.13;;;4.68;;
61015;SDS011;46902;52.920;6.536;2023-04-15T01:25:17;8.85;;;4.60;;
61015;SDS011;46902;52.920;6.536;2023-04-15T01:27:46;8.83;;;4.30;;
61015;SDS011;46902;52.920;6.536;2023-04-15T01:30:12;13.38;;;5.40;;
61015;SDS011;46902;52.920;6.536;2023-04-15T01:32:38;12.25;;;4.53;;
61015;SDS011;46902;52.920;6.536;2023-04-15T01:35:03;7.57;;;4.50;;
61015;SDS011;46902;52.920;6.536;2023-04-15T01:37:29;10.10;;;5.10;;
61015;SDS011;46902;52.920;6.536;2023-04-15T01:39:56;8.63;;;5.50;;
61015;SDS011;46902;52.920;6.536;2023-04-15T01:42:22;10.82;;;4.90;;
61015;SDS011;46902;52.920;6.536;2023-04-15T01:44:48;9.98;;;5.35;;
61015;SDS011;46902;52.920;6.536;2023-04-15T01:47:13;9.82;;;4.90;;
61015;SDS011;46902;52.920;6.536;2023-04-15T01:49:39;10.93;;;5.60;;
61015;SDS011;46902;52.920;6.536;2023-04-15T01:52:05;10.52;;;5.65;;
61015;SDS011;46902;52.920;6.536;2023-04-15T01:54:31;11.60;;;5.35;;
61015;SDS011;46902;52.920;6.536;2023-04-15T01:56:56;9.85;;;5.45;;
61015;SDS011;46902;52.920;6.536;2023-04-15T01:59:22;10.38;;;5.60;;
61015;SDS011;46902;52.920;6.536;2023-04-15T02:01:48;11.25;;;6.38;;
61015;SDS011;46902;52.920;6.536;2023-04-15T02:04:14;10.45;;;5.70;;
61015;SDS011;46902;52.920;6.536;2023-04-15T02:06:42;11.55;;;5.85;;
61015;SDS011;46902;52.920;6.536;2023-04-15T02:09:08;13.00;;;5.85;;
61015;SDS011;46902;52.920;6.536;2023-04-15T02:11:34;12.82;;;6.00;;
61015;SDS011;46902;52.920;6.536;2023-04-15T02:14:01;9.82;;;6.00;;
61015;SDS011;46902;52.920;6.536;2023-04-15T02:16:28;11.65;;;6.00;;
61015;SDS011;46902;52.920;6.536;2023-04-15T02:18:54;12.98;;;6.60;;
61015;SDS011;46902;52.920;6.536;2023-04-15T02:21:20;11.82;;;7.25;;
61015;SDS011;46902;52.920;6.536;2023-04-15T02:23:46;11.80;;;6.20;;
61015;SDS011;46902;52.920;6.536;2023-04-15T02:26:12;10.15;;;6.22;;
61015;SDS011;46902;52.920;6.536;2023-04-15T02:28:38;10.57;;;5.78;;
61015;SDS011;46902;52.920;6.536;2023-04-15T02:31:07;11.50;;;6.10;;
61015;SDS011;46902;52.920;6.536;2023-04-15T02:33:33;11.68;;;6.93;;
61015;SDS011;46902;52.920;6.536;2023-04-15T02:35:59;13.30;;;6.82;;
61015;SDS011;46902;52.920;6.536;2023-04-15T02:38:25;9.77;;;6.97;;
61015;SDS011;46902;52.920;6.536;2023-04-15T02:40:51;11.88;;;6.30;;
61015;SDS011;46902;52.920;6.536;2023-04-15T02:43:16;11.70;;;7.15;;
61015;SDS011;46902;52.920;6.536;2023-04-15T02:45:42;10.48;;;6.53;;
61015;SDS011;46902;52.920;6.536;2023-04-15T02:48:09;13.13;;;7.38;;
61015;SDS011;46902;52.920;6.536;2023-04-15T02:50:35;12.30;;;7.10;;
61015;SDS011;46902;52.920;6.536;2023-04-15T02:53:03;11.45;;;7.25;;
61015;SDS011;46902;52.920;6.536;2023-04-15T02:55:29;11.00;;;7.20;;
61015;SDS011;46902;52.920;6.536;2023-04-15T02:57:55;11.00;;;7.15;;
61015;SDS011;46902;52.920;6.536;2023-04-15T03:00:23;10.68;;;7.40;;
61015;SDS011;46902;52.920;6.536;2023-04-15T03:02:49;12.73;;;7.32;;
61015;SDS011;46902;52.920;6.536;2023-04-15T03:05:20;12.75;;;7.00;;
61015;SDS011;46902;52.920;6.536;2023-04-15T03:07:49;9.40;;;7.00;;
61015;SDS011;46902;52.920;6.536;2023-04-15T03:10:15;13.38;;;6.82;;
61015;SDS011;46902;52.920;6.536;2023-04-15T03:12:41;10.50;;;6.90;;
61015;SDS011;46902;52.920;6.536;2023-04-15T03:15:07;12.35;;;6.80;;
61015;SDS011;46902;52.920;6.536;2023-04-15T03:17:33;12.40;;;7.10;;
61015;SDS011;46902;52.920;6.536;2023-04-15T03:20:00;15.70;;;7.80;;
61015;SDS011;46902;52.920;6.536;2023-04-15T03:22:27;12.27;;;7.78;;
61015;SDS011;46902;52.920;6.536;2023-04-15T03:24:53;13.23;;;7.68;;
61015;SDS011;46902;52.920;6.536;2023-04-15T03:27:18;10.57;;;7.10;;
61015;SDS011;46902;52.920;6.536;2023-04-15T03:29:44;9.00;;;7.03;;
61015;SDS011;46902;52.920;6.536;2023-04-15T03:32:10;12.15;;;7.57;;
61015;SDS011;46902;52.920;6.536;2023-04-15T03:34:36;8.90;;;7.05;;
61015;SDS011;46902;52.920;6.536;2023-04-15T03:37:02;12.77;;;7.85;;
61015;SDS011;46902;52.920;6.536;2023-04-15T03:39:28;11.98;;;7.80;;
61015;SDS011;46902;52.920;6.536;2023-04-15T03:41:53;11.98;;;8.32;;
61015;SDS011;46902;52.920;6.536;2023-04-15T03:44:19;9.85;;;7.53;;
61015;SDS011;46902;52.920;6.536;2023-04-15T03:46:44;11.95;;;7.90;;
61015;SDS011;46902;52.920;6.536;2023-04-15T03:49:10;11.20;;;8.13;;
61015;SDS011;46902;52.920;6.536;2023-04-15T03:51:36;13.10;;;7.80;;
61015;SDS011;46902;52.920;6.536;2023-04-15T03:54:01;12.13;;;7.82;;
61015;SDS011;46902;52.920;6.536;2023-04-15T03:56:27;13.52;;;8.27;;
61015;SDS011;46902;52.920;6.536;2023-04-15T03:58:52;11.45;;;8.18;;
61015;SDS011;46902;52.920;6.536;2023-04-15T04:01:18;12.13;;;8.07;;
61015;SDS011;46902;52.920;6.536;2023-04-15T04:03:44;13.98;;;8.85;;
61015;SDS011;46902;52.920;6.536;2023-04-15T04:06:09;12.43;;;8.10;;
61015;SDS011;46902;52.920;6.536;2023-04-15T04:08:36;13.68;;;8.43;;
61015;SDS011;46902;52.920;6.536;2023-04-15T04:11:02;12.02;;;8.45;;
61015;SDS011;46902;52.920;6.536;2023-04-15T04:13:28;13.65;;;8.20;;
61015;SDS011;46902;52.920;6.536;2023-04-15T04:15:54;13.07;;;9.40;;
61015;SDS011;46902;52.920;6.536;2023-04-15T04:18:20;10.82;;;7.97;;
61015;SDS011;46902;52.920;6.536;2023-04-15T04:20:45;10.30;;;8.27;;
61015;SDS011;46902;52.920;6.536;2023-04-15T04:23:11;12.95;;;8.90;;
61015;SDS011;46902;52.920;6.536;2023-04-15T04:25:37;13.70;;;9.25;;
61015;SDS011;46902;52.920;6.536;2023-04-15T04:28:03;13.77;;;9.43;;
61015;SDS011;46902;52.920;6.536;2023-04-15T04:30:28;10.07;;;8.27;;
61015;SDS011;46902;52.920;6.536;2023-04-15T04:32:54;11.80;;;9.10;;
61015;SDS011;46902;52.920;6.536;2023-04-15T04:35:20;10.85;;;8.55;;
61015;SDS011;46902;52.920;6.536;2023-04-15T04:37:46;13.10;;;9.48;;
61015;SDS011;46902;52.920;6.536;2023-04-15T04:40:11;11.98;;;9.73;;
61015;SDS011;46902;52.920;6.536;2023-04-15T04:42:37;12.57;;;9.27;;
61015;SDS011;46902;52.920;6.536;2023-04-15T04:45:03;14.57;;;9.80;;
61015;SDS011;46902;52.920;6.536;2023-04-15T04:47:29;14.57;;;10.48;;
61015;SDS011;46902;52.920;6.536;2023-04-15T04:49:55;14.80;;;10.48;;
61015;SDS011;46902;52.920;6.536;2023-04-15T04:52:20;13.82;;;11.02;;
61015;SDS011;46902;52.920;6.536;2023-04-15T04:54:46;13.88;;;10.57;;
61015;SDS011;46902;52.920;6.536;2023-04-15T04:57:12;16.38;;;10.65;;
61015;SDS011;46902;52.920;6.536;2023-04-15T04:59:38;13.88;;;11.30;;
61015;SDS011;46902;52.920;6.536;2023-04-15T05:02:04;14.07;;;11.88;;
61015;SDS011;46902;52.920;6.536;2023-04-15T05:04:29;17.05;;;11.43;;
61015;SDS011;46902;52.920;6.536;2023-04-15T05:06:56;15.60;;;11.82;;
61015;SDS011;46902;52.920;6.536;2023-04-15T05:09:22;13.73;;;11.77;;
61015;SDS011;46902;52.920;6.536;2023-04-15T05:11:48;16.00;;;12.07;;
61015;SDS011;46902;52.920;6.536;2023-04-15T05:14:13;14.57;;;12.35;;
61015;SDS011;46902;52.920;6.536;2023-04-15T05:16:39;16.35;;;12.52;;
61015;SDS011;46902;52.920;6.536;2023-04-15T05:19:04;14.18;;;11.52;;
61015;SDS011;46902;52.920;6.536;2023-04-15T05:21:30;17.63;;;11.98;;
61015;SDS011;46902;52.920;6.536;2023-04-15T05:23:56;15.60;;;11.68;;
61015;SDS011;46902;52.920;6.536;2023-04-15T05:26:21;15.02;;;12.10;;
61015;SDS011;46902;52.920;6.536;2023-04-15T05:28:48;14.40;;;11.85;;
61015;SDS011;46902;52.920;6.536;2023-04-15T05:31:14;14.93;;;12.43;;
61015;SDS011;46902;52.920;6.536;2023-04-15T05:33:40;17.20;;;13.15;;
61015;SDS011;46902;52.920;6.536;2023-04-15T05:36:06;15.43;;;12.00;;
61015;SDS011;46902;52.920;6.536;2023-04-15T05:38:32;16.60;;;12.40;;
61015;SDS011;46902;52.920;6.536;2023-04-15T05:40:57;16.75;;;12.52;;
61015;SDS011;46902;52.920;6.536;2023-04-15T05:43:23;14.93;;;12.43;;
61015;SDS011;46902;52.920;6.536;2023-04-15T05:45:48;13.63;;;10.82;;
61015;SDS011;46902;52.920;6.536;2023-04-15T05:48:14;15.10;;;11.57;;
61015;SDS011;46902;52.920;6.536;2023-04-15T05:50:40;16.80;;;12.10;;
61015;SDS011;46902;52.920;6.536;2023-04-15T05:53:07;14.80;;;12.13;;
61015;SDS011;46902;52.920;6.536;2023-04-15T05:55:32;17.10;;;12.82;;
61015;SDS011;46902;52.920;6.536;2023-04-15T05:57:58;14.80;;;12.85;;
61015;SDS011;46902;52.920;6.536;2023-04-15T06:00:24;15.20;;;12.65;;
61015;SDS011;46902;52.920;6.536;2023-04-15T06:02:50;16.65;;;13.10;;
61015;SDS011;46902;52.920;6.536;2023-04-15T06:05:16;16.08;;;12.80;;
61015;SDS011;46902;52.920;6.536;2023-04-15T06:07:42;14.43;;;11.90;;
61015;SDS011;46902;52.920;6.536;2023-04-15T06:10:08;17.33;;;11.57;;
61015;SDS011;46902;52.920;6.536;2023-04-15T06:12:34;14.43;;;11.68;;
61015;SDS011;46902;52.920;6.536;2023-04-15T06:15:00;14.05;;;12.07;;
61015;SDS011;46902;52.920;6.536;2023-04-15T06:17:26;14.55;;;11.55;;
61015;SDS011;46902;52.920;6.536;2023-04-15T06:19:51;15.95;;;12.70;;
61015;SDS011;46902;52.920;6.536;2023-04-15T06:22:23;16.08;;;12.10;;
61015;SDS011;46902;52.920;6.536;2023-04-15T06:24:49;14.00;;;11.32;;
61015;SDS011;46902;52.920;6.536;2023-04-15T06:27:15;14.65;;;11.80;;
61015;SDS011;46902;52.920;6.536;2023-04-15T06:29:41;12.80;;;11.35;;
61015;SDS011;46902;52.920;6.536;2023-04-15T06:32:07;14.20;;;11.40;;
61015;SDS011;46902;52.920;6.536;2023-04-15T06:34:32;13.30;;;11.43;;
61015;SDS011;46902;52.920;6.536;2023-04-15T06:36:58;14.10;;;11.43;;
61015;SDS011;46902;52.920;6.536;2023-04-15T06:39:24;15.25;;;12.15;;
61015;SDS011;46902;52.920;6.536;2023-04-15T06:41:51;13.98;;;10.40;;
61015;SDS011;46902;52.920;6.536;2023-04-15T06:44:17;15.25;;;10.85;;
61015;SDS011;46902;52.920;6.536;2023-04-15T06:46:42;14.30;;;11.32;;
61015;SDS011;46902;52.920;6.536;2023-04-15T06:49:08;15.20;;;11.60;;
61015;SDS011;46902;52.920;6.536;2023-04-15T06:51:35;16.80;;;12.15;;
61015;SDS011;46902;52.920;6.536;2023-04-15T06:54:01;14.80;;;11.68;;
61015;SDS011;46902;52.920;6.536;2023-04-15T06:56:30;15.60;;;12.05;;
61015;SDS011;46902;52.920;6.536;2023-04-15T06:58:56;15.85;;;11.30;;
61015;SDS011;46902;52.920;6.536;2023-04-15T07:01:21;13.82;;;11.05;;
61015;SDS011;46902;52.920;6.536;2023-04-15T07:03:47;14.23;;;10.32;;
61015;SDS011;46902;52.920;6.536;2023-04-15T07:06:13;14.38;;;10.43;;
61015;SDS011;46902;52.920;6.536;2023-04-15T07:08:38;13.38;;;10.27;;
61015;SDS011;46902;52.920;6.536;2023-04-15T07:11:04;12.93;;;10.02;;
61015;SDS011;46902;52.920;6.536;2023-04-15T07:13:30;13.70;;;10.50;;
61015;SDS011;46902;52.920;6.536;2023-04-15T07:15:56;11.82;;;9.95;;
61015;SDS011;46902;52.920;6.536;2023-04-15T07:18:22;16.00;;;10.25;;
61015;SDS011;46902;52.920;6.536;2023-04-15T07:20:48;12.85;;;9.55;;
61015;SDS011;46902;52.920;6.536;2023-04-15T07:23:13;13.63;;;9.60;;
61015;SDS011;46902;52.920;6.536;2023-04-15T07:25:39;16.10;;;9.32;;
61015;SDS011;46902;52.920;6.536;2023-04-15T07:28:05;13.68;;;9.68;;
61015;SDS011;46902;52.920;6.536;2023-04-15T07:30:30;11.93;;;9.65;;
61015;SDS011;46902;52.920;6.536;2023-04-15T07:32:57;11.93;;;9.45;;
61015;SDS011;46902;52.920;6.536;2023-04-15T07:35:23;11.30;;;9.60;;
61015;SDS011;46902;52.920;6.536;2023-04-15T07:37:49;11.15;;;8.85;;
61015;SDS011;46902;52.920;6.536;2023-04-15T07:40:16;11.70;;;8.95;;
61015;SDS011;46902;52.920;6.536;2023-04-15T07:42:42;12.35;;;8.95;;
61015;SDS011;46902;52.920;6.536;2023-04-15T07:45:08;11.10;;;8.90;;
61015;SDS011;46902;52.920;6.536;2023-04-15T07:47:34;11.55;;;8.65;;
61015;SDS011;46902;52.920;6.536;2023-04-15T07:50:00;10.95;;;8.48;;
61015;SDS011;46902;52.920;6.536;2023-04-15T07:52:26;11.10;;;8.23;;
61015;SDS011;46902;52.920;6.536;2023-04-15T07:54:52;9.98;;;7.13;;
61015;SDS011;46902;52.920;6.536;2023-04-15T07:57:18;9.70;;;7.20;;
61015;SDS011;46902;52.920;6.536;2023-04-15T07:59:44;9.55;;;7.10;;
61015;SDS011;46902;52.920;6.536;2023-04-15T08:02:09;9.70;;;7.15;;
61015;SDS011;46902;52.920;6.536;2023-04-15T08:04:35;8.68;;;6.00;;
61015;SDS011;46902;52.920;6.536;2023-04-15T08:07:01;9.80;;;6.00;;
61015;SDS011;46902;52.920;6.536;2023-04-15T08:09:28;9.00;;;6.35;;
61015;SDS011;46902;52.920;6.536;2023-04-15T08:11:53;10.07;;;5.78;;
61015;SDS011;46902;52.920;6.536;2023-04-15T08:14:21;8.93;;;5.40;;
61015;SDS011;46902;52.920;6.536;2023-04-15T08:16:46;8.90;;;5.70;;
61015;SDS011;46902;52.920;6.536;2023-04-15T08:19:12;7.80;;;5.03;;
61015;SDS011;46902;52.920;6.536;2023-04-15T08:21:38;8.80;;;4.30;;
61015;SDS011;46902;52.920;6.536;2023-04-15T08:24:04;7.22;;;4.82;;
61015;SDS011;46902;52.920;6.536;2023-04-15T08:26:31;7.68;;;4.80;;
61015;SDS011;46902;52.920;6.536;2023-04-15T08:28:56;7.90;;;4.45;;
61015;SDS011;46902;52.920;6.536;2023-04-15T08:31:22;6.43;;;4.05;;
61015;SDS011;46902;52.920;6.536;2023-04-15T08:33:48;7.03;;;3.92;;
61015;SDS011;46902;52.920;6.536;2023-04-15T08:36:16;5.93;;;4.07;;
61015;SDS011;46902;52.920;6.536;2023-04-15T08:38:43;7.57;;;4.40;;
61015;SDS011;46902;52.920;6.536;2023-04-15T08:41:11;6.57;;;4.20;;
61015;SDS011;46902;52.920;6.536;2023-04-15T08:43:51;8.15;;;4.88;;
61015;SDS011;46902;52.920;6.536;2023-04-15T08:46:19;7.38;;;4.18;;
61015;SDS011;46902;52.920;6.536;2023-04-15T08:48:46;8.35;;;4.88;;
61015;SDS011;46902;52.920;6.536;2023-04-15T08:51:12;5.97;;;4.22;;
61015;SDS011;46902;52.920;6.536;2023-04-15T08:53:40;7.30;;;4.55;;
61015;SDS011;46902;52.920;6.536;2023-04-15T08:56:08;7.40;;;4.85;;
61015;SDS011;46902;52.920;6.536;2023-04-15T08:58:34;9.60;;;5.95;;
61015;SDS011;46902;52.920;6.536;2023-04-15T09:01:01;8.13;;;5.03;;
61015;SDS011;46902;52.920;6.536;2023-04-15T09:03:28;7.28;;;4.25;;
61015;SDS011;46902;52.920;6.536;2023-04-15T09:05:54;7.20;;;4.53;;
61015;SDS011;46902;52.920;6.536;2023-04-15T09:08:21;6.88;;;3.70;;
61015;SDS011;46902;52.920;6.536;2023-04-15T09:10:47;7.35;;;3.97;;
61015;SDS011;46902;52.920;6.536;2023-04-15T09:13:12;10.75;;;4.50;;
61015;SDS011;46902;52.920;6.536;2023-04-15T09:15:38;7.18;;;4.15;;
61015;SDS011;46902;52.920;6.536;2023-04-15T09:18:04;6.60;;;4.20;;
61015;SDS011;46902;52.920;6.536;2023-04-15T09:20:32;7.50;;;3.85;;
61015;SDS011;46902;52.920;6.536;2023-04-15T09:23:10;7.38;;;4.07;;
61015;SDS011;46902;52.920;6.536;2023-04-15T09:25:40;8.07;;;3.92;;
61015;SDS011;46902;52.920;6.536;2023-04-15T09:28:06;8.73;;;3.80;;
61015;SDS011;46902;52.920;6.536;2023-04-15T09:30:32;11.80;;;3.80;;
61015;SDS011;46902;52.920;6.536;2023-04-15T09:33:00;8.77;;;3.75;;
61015;SDS011;46902;52.920;6.536;2023-04-15T09:35:26;7.28;;;3.53;;
61015;SDS011;46902;52.920;6.536;2023-04-15T09:37:53;8.80;;;3.22;;
61015;SDS011;46902;52.920;6.536;2023-04-15T09:40:36;7.38;;;2.83;;
61015;SDS011;46902;52.920;6.536;2023-04-15T09:43:03;5.65;;;2.58;;
61015;SDS011;46902;52.920;6.536;2023-04-15T09:45:30;6.05;;;2.55;;
61015;SDS011;46902;52.920;6.536;2023-04-15T09:47:57;9.02;;;2.40;;
61015;SDS011;46902;52.920;6.536;2023-04-15T09:50:26;5.18;;;1.85;;
61015;SDS011;46902;52.920;6.536;2023-04-15T09:52:53;8.20;;;1.90;;
61015;SDS011;46902;52.920;6.536;2023-04-15T09:55:20;5.63;;;2.00;;
61015;SDS011;46902;52.920;6.536;2023-04-15T09:57:46;4.53;;;1.75;;
61015;SDS011;46902;52.920;6.536;2023-04-15T10:00:12;4.80;;;2.38;;
61015;SDS011;46902;52.920;6.536;2023-04-15T10:02:39;4.75;;;1.80;;
61015;SDS011;46902;52.920;6.536;2023-04-15T10:05:06;5.82;;;1.70;;
61015;SDS011;46902;52.920;6.536;2023-04-15T10:07:37;5.60;;;1.88;;
61015;SDS011;46902;52.920;6.536;2023-04-15T10:10:05;4.15;;;1.63;;
61015;SDS011;46902;52.920;6.536;2023-04-15T10:12:31;3.47;;;1.65;;
61015;SDS011;46902;52.920;6.536;2023-04-15T10:14:58;3.45;;;1.48;;
61015;SDS011;46902;52.920;6.536;2023-04-15T10:17:27;2.35;;;1.40;;
61015;SDS011;46902;52.920;6.536;2023-04-15T10:19:59;4.60;;;1.33;;
61015;SDS011;46902;52.920;6.536;2023-04-15T10:22:26;4.50;;;1.58;;
61015;SDS011;46902;52.920;6.536;2023-04-15T10:24:52;3.17;;;1.45;;
61015;SDS011;46902;52.920;6.536;2023-04-15T10:27:20;1.90;;;1.10;;
61015;SDS011;46902;52.920;6.536;2023-04-15T10:29:46;4.80;;;1.40;;
61015;SDS011;46902;52.920;6.536;2023-04-15T10:32:13;4.95;;;1.50;;
61015;SDS011;46902;52.920;6.536;2023-04-15T10:34:43;4.40;;;1.60;;
61015;SDS011;46902;52.920;6.536;2023-04-15T10:37:10;2.72;;;1.30;;
61015;SDS011;46902;52.920;6.536;2023-04-15T10:42:06;3.55;;;1.48;;
61015;SDS011;46902;52.920;6.536;2023-04-15T10:44:34;2.47;;;1.23;;
61015;SDS011;46902;52.920;6.536;2023-04-15T10:47:03;3.97;;;1.52;;
61015;SDS011;46902;52.920;6.536;2023-04-15T10:52:06;3.70;;;1.48;;
61015;SDS011;46902;52.920;6.536;2023-04-15T10:54:32;4.15;;;1.80;;
61015;SDS011;46902;52.920;6.536;2023-04-15T10:59:29;4.87;;;1.20;;
61015;SDS011;46902;52.920;6.536;2023-04-15T11:01:56;2.72;;;1.30;;
61015;SDS011;46902;52.920;6.536;2023-04-15T11:07:37;2.70;;;1.30;;
61015;SDS011;46902;52.920;6.536;2023-04-15T11:12:38;2.30;;;1.20;;
61015;SDS011;46902;52.920;6.536;2023-04-15T11:20:51;5.20;;;1.58;;
61015;SDS011;46902;52.920;6.536;2023-04-15T11:23:19;5.25;;;1.50;;
61015;SDS011;46902;52.920;6.536;2023-04-15T11:26:11;3.00;;;1.30;;
61015;SDS011;46902;52.920;6.536;2023-04-15T11:28:46;5.95;;;1.45;;
61015;SDS011;46902;52.920;6.536;2023-04-15T11:33:57;5.35;;;1.70;;
61015;SDS011;46902;52.920;6.536;2023-04-15T11:36:25;4.55;;;1.60;;
61015;SDS011;46902;52.920;6.536;2023-04-15T11:38:53;5.63;;;1.70;;
61015;SDS011;46902;52.920;6.536;2023-04-15T11:41:19;7.45;;;2.40;;
61015;SDS011;46902;52.920;6.536;2023-04-15T11:43:48;9.35;;;1.90;;
61015;SDS011;46902;52.920;6.536;2023-04-15T11:46:15;5.57;;;1.70;;
61015;SDS011;46902;52.920;6.536;2023-04-15T11:48:44;5.68;;;2.17;;
61015;SDS011;46902;52.920;6.536;2023-04-15T11:51:11;5.95;;;2.00;;
61015;SDS011;46902;52.920;6.536;2023-04-15T11:53:44;5.28;;;1.80;;
61015;SDS011;46902;52.920;6.536;2023-04-15T11:56:21;4.43;;;1.42;;
61015;SDS011;46902;52.920;6.536;2023-04-15T11:58:49;7.97;;;1.98;;
61015;SDS011;46902;52.920;6.536;2023-04-15T12:01:17;7.55;;;2.03;;
61015;SDS011;46902;52.920;6.536;2023-04-15T12:03:46;7.97;;;1.88;;
61015;SDS011;46902;52.920;6.536;2023-04-15T12:14:07;7.20;;;1.70;;
61015;SDS011;46902;52.920;6.536;2023-04-15T12:16:39;6.88;;;1.60;;
61015;SDS011;46902;52.920;6.536;2023-04-15T12:19:25;6.55;;;1.45;;
61015;SDS011;46902;52.920;6.536;2023-04-15T12:21:56;7.47;;;1.67;;
61015;SDS011;46902;52.920;6.536;2023-04-15T12:24:24;7.03;;;1.63;;
61015;SDS011;46902;52.920;6.536;2023-04-15T12:26:51;8.20;;;1.70;;
61015;SDS011;46902;52.920;6.536;2023-04-15T12:29:19;9.13;;;2.22;;
61015;SDS011;46902;52.920;6.536;2023-04-15T12:31:49;5.30;;;1.67;;
61015;SDS011;46902;52.920;6.536;2023-04-15T12:34:16;9.45;;;1.80;;
61015;SDS011;46902;52.920;6.536;2023-04-15T12:36:49;10.85;;;1.90;;
61015;SDS011;46902;52.920;6.536;2023-04-15T12:39:15;5.05;;;1.17;;
61015;SDS011;46902;52.920;6.536;2023-04-15T12:41:41;5.82;;;1.63;;
61015;SDS011;46902;52.920;6.536;2023-04-15T12:44:07;9.85;;;2.17;;
61015;SDS011;46902;52.920;6.536;2023-04-15T12:46:32;9.52;;;1.60;;
61015;SDS011;46902;52.920;6.536;2023-04-15T12:48:58;7.68;;;1.70;;
61015;SDS011;46902;52.920;6.536;2023-04-15T12:51:25;9.48;;;1.65;;
61015;SDS011;46902;52.920;6.536;2023-04-15T12:53:51;8.15;;;1.95;;
61015;SDS011;46902;52.920;6.536;2023-04-15T12:56:17;9.35;;;1.90;;
61015;SDS011;46902;52.920;6.536;2023-04-15T12:58:42;6.63;;;1.90;;
61015;SDS011;46902;52.920;6.536;2023-04-15T13:01:08;6.68;;;1.50;;
61015;SDS011;46902;52.920;6.536;2023-04-15T13:03:34;6.18;;;1.40;;
61015;SDS011;46902;52.920;6.536;2023-04-15T13:06:00;6.28;;;1.65;;
61015;SDS011;46902;52.920;6.536;2023-04-15T13:08:28;6.20;;;1.38;;
61015;SDS011;46902;52.920;6.536;2023-04-15T13:10:54;6.90;;;1.63;;
61015;SDS011;46902;52.920;6.536;2023-04-15T13:13:20;8.13;;;1.65;;
61015;SDS011;46902;52.920;6.536;2023-04-15T13:15:46;7.50;;;1.70;;
61015;SDS011;46902;52.920;6.536;2023-04-15T13:18:12;8.07;;;1.90;;
61015;SDS011;46902;52.920;6.536;2023-04-15T13:20:38;5.35;;;1.40;;
61015;SDS011;46902;52.920;6.536;2023-04-15T13:23:04;5.80;;;1.13;;
61015;SDS011;46902;52.920;6.536;2023-04-15T13:25:29;6.93;;;1.85;;
61015;SDS011;46902;52.920;6.536;2023-04-15T13:27:55;9.43;;;1.70;;
61015;SDS011;46902;52.920;6.536;2023-04-15T13:30:21;7.03;;;1.60;;
61015;SDS011;46902;52.920;6.536;2023-04-15T13:32:47;14.57;;;1.92;;
61015;SDS011;46902;52.920;6.536;2023-04-15T13:35:13;11.25;;;1.92;;
61015;SDS011;46902;52.920;6.536;2023-04-15T13:37:39;10.35;;;1.55;;
61015;SDS011;46902;52.920;6.536;2023-04-15T13:40:06;8.90;;;1.77;;
61015;SDS011;46902;52.920;6.536;2023-04-15T13:42:32;8.60;;;1.50;;
61015;SDS011;46902;52.920;6.536;2023-04-15T13:44:57;8.48;;;1.85;;
61015;SDS011;46902;52.920;6.536;2023-04-15T13:47:23;10.00;;;2.05;;
61015;SDS011;46902;52.920;6.536;2023-04-15T13:49:49;9.38;;;1.70;;
61015;SDS011;46902;52.920;6.536;2023-04-15T13:52:16;5.57;;;1.58;;
61015;SDS011;46902;52.920;6.536;2023-04-15T13:54:42;6.07;;;1.40;;
61015;SDS011;46902;52.920;6.536;2023-04-15T13:57:07;12.00;;;1.83;;
61015;SDS011;46902;52.920;6.536;2023-04-15T13:59:33;9.80;;;1.70;;
61015;SDS011;46902;52.920;6.536;2023-04-15T14:01:59;9.93;;;1.63;;
61015;SDS011;46902;52.920;6.536;2023-04-15T14:04:26;9.65;;;1.80;;
61015;SDS011;46902;52.920;6.536;2023-04-15T14:06:51;11.82;;;1.80;;
61015;SDS011;46902;52.920;6.536;2023-04-15T14:09:17;8.88;;;1.70;;
61015;SDS011;46902;52.920;6.536;2023-04-15T14:11:43;7.60;;;2.42;;
61015;SDS011;46902;52.920;6.536;2023-04-15T14:14:08;8.75;;;1.60;;
61015;SDS011;46902;52.920;6.536;2023-04-15T14:16:34;7.55;;;1.60;;
61015;SDS011;46902;52.920;6.536;2023-04-15T14:19:00;7.45;;;2.22;;
61015;SDS011;46902;52.920;6.536;2023-04-15T14:21:26;13.98;;;9.88;;
61015;SDS011;46902;52.920;6.536;2023-04-15T14:23:53;8.63;;;2.88;;
61015;SDS011;46902;52.920;6.536;2023-04-15T14:26:18;7.25;;;2.05;;
61015;SDS011;46902;52.920;6.536;2023-04-15T14:28:44;12.80;;;2.92;;
61015;SDS011;46902;52.920;6.536;2023-04-15T14:31:10;10.10;;;6.65;;
61015;SDS011;46902;52.920;6.536;2023-04-15T14:33:35;11.40;;;2.65;;
61015;SDS011;46902;52.920;6.536;2023-04-15T14:36:01;12.82;;;4.20;;
61015;SDS011;46902;52.920;6.536;2023-04-15T14:38:27;13.65;;;3.88;;
61015;SDS011;46902;52.920;6.536;2023-04-15T14:40:52;7.22;;;2.40;;
61015;SDS011;46902;52.920;6.536;2023-04-15T14:43:19;10.27;;;5.60;;
61015;SDS011;46902;52.920;6.536;2023-04-15T14:45:45;10.93;;;6.35;;
61015;SDS011;46902;52.920;6.536;2023-04-15T14:48:10;17.45;;;14.23;;
61015;SDS011;46902;52.920;6.536;2023-04-15T14:50:36;12.00;;;4.65;;
61015;SDS011;46902;52.920;6.536;2023-04-15T14:53:02;5.72;;;1.80;;
61015;SDS011;46902;52.920;6.536;2023-04-15T14:55:28;5.70;;;1.75;;
61015;SDS011;46902;52.920;6.536;2023-04-15T14:57:54;8.32;;;1.45;;
61015;SDS011;46902;52.920;6.536;2023-04-15T15:00:19;7.18;;;1.30;;
61015;SDS011;46902;52.920;6.536;2023-04-15T15:02:45;9.38;;;2.20;;
61015;SDS011;46902;52.920;6.536;2023-04-15T15:05:13;6.93;;;1.80;;